createdAt,value
2019-03-11T00:00:40.509Z,85.20
2019-03-11T00:03:09.712Z,85.10
2019-03-11T00:05:38.882Z,83.30
2019-03-11T00:08:07.998Z,82.80
2019-03-11T00:10:37.183Z,83.40
2019-03-11T00:13:06.384Z,83.30
2019-03-11T00:15:35.604Z,83.30
2019-03-11T00:18:04.998Z,84.10
2019-03-11T00:20:34.184Z,82.50
2019-03-11T00:23:03.453Z,82.50
2019-03-11T00:25:32.569Z,82.40
2019-03-11T00:28:01.766Z,81.20
2019-03-11T00:30:30.956Z,80.10
2019-03-11T00:33:00.134Z,79.10
2019-03-11T00:35:29.351Z,79.80
2019-03-11T00:37:58.518Z,78.60
2019-03-11T00:40:27.640Z,78.30
2019-03-11T00:42:56.802Z,77.80
2019-03-11T00:45:26.017Z,78.40
2019-03-11T00:48:01.848Z,78.70
2019-03-11T00:50:25.825Z,78.50
2019-03-11T00:52:55.005Z,77.60
2019-03-11T00:55:24.114Z,79.50
2019-03-11T00:57:53.377Z,79.60
2019-03-11T01:00:28.122Z,79.60
2019-03-11T01:02:57.412Z,79.50
2019-03-11T01:05:26.711Z,78.60
2019-03-11T01:07:56.085Z,79.00
2019-03-11T01:10:25.596Z,78.70
2019-03-11T01:12:54.952Z,78.20
2019-03-11T01:15:24.168Z,78.10
2019-03-11T01:17:53.347Z,78.10
2019-03-11T01:20:22.661Z,77.80
2019-03-11T01:22:51.884Z,77.30
2019-03-11T01:25:21.099Z,77.60
2019-03-11T01:27:50.382Z,77.60
2019-03-11T01:30:20.108Z,78.40
2019-03-11T01:32:49.255Z,78.40
2019-03-11T01:35:18.472Z,79.40
2019-03-11T01:37:47.651Z,78.70
2019-03-11T01:40:18.164Z,78.80
2019-03-11T01:42:47.437Z,79.10
2019-03-11T01:45:20.177Z,77.80
2019-03-11T01:47:49.350Z,78.10
2019-03-11T01:50:18.633Z,77.60
2019-03-11T01:52:47.808Z,78.10
2019-03-11T01:55:17.022Z,77.70
2019-03-11T01:57:46.289Z,78.10
2019-03-11T02:00:17.861Z,78.00
2019-03-11T02:02:47.239Z,78.10
2019-03-11T02:05:16.640Z,78.50
2019-03-11T02:07:45.926Z,78.40
2019-03-11T02:10:16.731Z,79.30
2019-03-11T02:12:46.053Z,79.40
2019-03-11T02:15:16.715Z,80.10
2019-03-11T02:17:45.927Z,80.80
2019-03-11T02:20:16.807Z,79.10
2019-03-11T02:22:45.995Z,79.30
2019-03-11T02:25:15.975Z,79.40
2019-03-11T02:27:45.292Z,79.10
2019-03-11T02:30:18.869Z,78.40
2019-03-11T02:32:47.967Z,78.50
2019-03-11T02:35:28.707Z,80.10
2019-03-11T02:37:58.298Z,80.20
2019-03-11T02:40:28.076Z,79.10
2019-03-11T02:42:57.334Z,79.30
2019-03-11T02:45:26.538Z,79.20
2019-03-11T02:47:55.649Z,79.10
2019-03-11T02:50:25.028Z,79.50
2019-03-11T02:52:54.152Z,79.80
2019-03-11T02:55:23.321Z,79.10
2019-03-11T02:57:52.422Z,78.10
2019-03-11T03:00:21.895Z,78.50
2019-03-11T03:02:52.575Z,79.40
2019-03-11T03:05:23.433Z,79.10
2019-03-11T03:07:52.543Z,78.60
2019-03-11T03:10:21.707Z,79.00
2019-03-11T03:12:50.813Z,78.20
2019-03-11T03:15:19.995Z,77.60
2019-03-11T03:17:49.110Z,77.00
2019-03-11T03:20:18.378Z,77.60
2019-03-11T03:22:47.692Z,76.00
2019-03-11T03:25:16.959Z,77.70
2019-03-11T03:27:46.111Z,77.20
2019-03-11T03:30:18.117Z,75.50
2019-03-11T03:32:47.434Z,76.50
2019-03-11T03:35:16.774Z,76.00
2019-03-11T03:37:46.014Z,75.80
2019-03-11T03:40:16.691Z,76.30
2019-03-11T03:42:46.066Z,75.90
2019-03-11T03:45:23.382Z,75.80
2019-03-11T03:47:52.707Z,75.80
2019-03-11T03:50:23.407Z,75.70
2019-03-11T03:52:52.573Z,76.10
2019-03-11T03:55:21.900Z,75.60
2019-03-11T03:57:51.277Z,75.50
2019-03-11T04:00:20.464Z,74.80
2019-03-11T04:02:49.836Z,76.00
2019-03-11T04:05:19.050Z,75.80
2019-03-11T04:07:48.225Z,75.80
2019-03-11T04:10:20.943Z,75.60
2019-03-11T04:12:50.219Z,75.10
2019-03-11T04:15:19.534Z,74.30
2019-03-11T04:17:49.010Z,75.60
2019-03-11T04:20:23.214Z,76.00
2019-03-11T04:22:52.601Z,77.80
2019-03-11T04:25:21.908Z,78.60
2019-03-11T04:27:51.204Z,80.80
2019-03-11T04:30:22.702Z,83.70
2019-03-11T04:32:51.974Z,88.60
2019-03-11T04:35:21.176Z,90.70
2019-03-11T04:37:50.461Z,91.60
2019-03-11T04:40:19.678Z,92.30
2019-03-11T04:42:48.871Z,92.50
2019-03-11T04:45:18.579Z,92.50
2019-03-11T04:47:47.847Z,92.90
2019-03-11T04:50:22.698Z,93.00
2019-03-11T04:52:51.878Z,92.80
2019-03-11T04:55:20.992Z,92.90
2019-03-11T04:57:52.671Z,92.80
2019-03-11T05:00:27.606Z,92.80
2019-03-11T05:02:56.770Z,93.00
2019-03-11T05:05:26.099Z,92.80
2019-03-11T05:07:55.366Z,92.80
2019-03-11T05:10:24.467Z,92.90
2019-03-11T05:12:53.660Z,92.80
2019-03-11T05:15:22.769Z,92.70
2019-03-11T05:17:51.989Z,93.10
2019-03-11T05:20:21.369Z,92.90
2019-03-11T05:22:50.471Z,93.00
2019-03-11T05:25:19.871Z,93.10
2019-03-11T05:27:48.982Z,93.10
2019-03-11T05:30:21.679Z,93.10
2019-03-11T05:32:50.784Z,93.40
2019-03-11T05:35:19.962Z,93.30
2019-03-11T05:37:49.176Z,93.30
2019-03-11T05:40:19.672Z,93.40
2019-03-11T05:42:48.871Z,93.30
2019-03-11T05:45:19.060Z,93.50
2019-03-11T05:47:48.778Z,93.40
2019-03-11T05:50:18.850Z,93.60
2019-03-11T05:52:48.053Z,93.60
2019-03-11T05:55:17.338Z,93.70
2019-03-11T05:57:46.778Z,93.00
2019-03-11T06:00:30.445Z,93.30
2019-03-11T06:02:59.528Z,93.20
2019-03-11T06:05:28.804Z,93.40
2019-03-11T06:07:58.228Z,93.50
2019-03-11T06:10:27.509Z,93.40
2019-03-11T06:12:56.619Z,93.40
2019-03-11T06:15:25.794Z,93.30
2019-03-11T06:17:55.008Z,93.20
2019-03-11T06:20:31.833Z,93.90
2019-03-11T06:23:02.642Z,93.30
2019-03-11T06:25:31.935Z,93.50
2019-03-11T06:28:01.049Z,93.40
2019-03-11T06:30:30.429Z,93.50
2019-03-11T06:32:59.648Z,94.00
2019-03-11T06:35:29.018Z,94.60
2019-03-11T06:37:58.136Z,95.30
2019-03-11T06:40:27.526Z,95.90
2019-03-11T06:42:56.605Z,96.40
2019-03-11T06:45:25.896Z,97.00
2019-03-11T06:47:55.022Z,97.30
2019-03-11T06:50:24.229Z,96.90
2019-03-11T06:52:53.413Z,96.90
2019-03-11T06:55:22.522Z,96.50
2019-03-11T06:57:51.706Z,95.10
2019-03-11T07:00:22.798Z,94.60
2019-03-11T07:02:51.956Z,94.90
2019-03-11T07:05:21.284Z,95.30
2019-03-11T07:07:50.656Z,95.10
2019-03-11T07:10:19.848Z,95.40
2019-03-11T07:12:49.107Z,95.30
2019-03-11T07:15:18.196Z,95.00
2019-03-11T07:17:47.471Z,95.00
2019-03-11T07:20:18.095Z,94.70
2019-03-11T07:22:47.473Z,94.60
2019-03-11T07:25:16.676Z,94.40
2019-03-11T07:27:45.943Z,94.50
2019-03-11T07:30:19.001Z,94.40
2019-03-11T07:32:48.371Z,94.00
2019-03-11T07:35:17.578Z,94.30
2019-03-11T07:37:46.854Z,94.60
2019-03-11T07:40:28.483Z,94.40
2019-03-11T07:42:48.111Z,94.40
2019-03-11T07:45:17.909Z,94.40
2019-03-11T07:47:47.082Z,94.00
2019-03-11T07:50:19.661Z,94.20
2019-03-11T07:52:48.456Z,94.30
2019-03-11T07:55:17.756Z,94.10
2019-03-11T07:57:47.243Z,94.00
2019-03-11T08:00:20.963Z,93.30
2019-03-11T08:02:50.236Z,93.60
2019-03-11T08:05:19.558Z,93.60
2019-03-11T08:07:48.861Z,93.60
2019-03-11T08:10:23.111Z,94.00
2019-03-11T08:12:52.593Z,93.60
2019-03-11T08:15:21.706Z,93.40
2019-03-11T08:17:50.906Z,93.40
2019-03-11T08:20:20.126Z,94.10
2019-03-11T08:22:49.306Z,93.70
2019-03-11T08:25:18.418Z,94.00
2019-03-11T08:27:47.781Z,93.80
2019-03-11T08:30:21.041Z,93.70
2019-03-11T08:32:50.327Z,94.20
2019-03-11T08:35:19.521Z,93.80
2019-03-11T08:37:48.726Z,94.10
2019-03-11T08:40:19.117Z,94.00
2019-03-11T08:42:48.419Z,93.80
2019-03-11T08:45:21.141Z,93.70
2019-03-11T08:47:50.245Z,93.70
2019-03-11T08:50:19.628Z,93.20
2019-03-11T08:52:48.720Z,92.70
2019-03-11T08:55:17.998Z,92.80
2019-03-11T08:57:47.198Z,92.90
2019-03-11T09:00:21.453Z,92.30
2019-03-11T09:02:50.743Z,91.90
2019-03-11T09:05:20.128Z,92.20
2019-03-11T09:07:49.240Z,91.50
2019-03-11T09:10:19.417Z,91.40
2019-03-11T09:12:48.628Z,91.50
2019-03-11T09:15:21.470Z,92.30
2019-03-11T09:17:50.702Z,90.90
2019-03-11T09:20:20.381Z,90.90
2019-03-11T09:22:49.688Z,89.50
2019-03-11T09:25:24.496Z,89.50
2019-03-11T09:27:53.812Z,87.00
2019-03-11T09:30:23.890Z,85.60
2019-03-11T09:32:53.284Z,85.00
2019-03-11T09:35:22.477Z,86.10
2019-03-11T09:37:51.578Z,87.30
2019-03-11T09:40:21.652Z,87.50
2019-03-11T09:42:50.963Z,84.20
2019-03-11T09:45:20.730Z,87.00
2019-03-11T09:47:50.052Z,81.10
2019-03-11T09:50:19.636Z,81.60
2019-03-11T09:52:48.839Z,83.30
2019-03-11T09:55:25.827Z,84.80
2019-03-11T09:57:55.126Z,83.20
2019-03-11T10:00:26.761Z,81.70
2019-03-11T10:02:55.972Z,83.70
2019-03-11T10:05:25.143Z,83.80
2019-03-11T10:07:54.491Z,84.50
2019-03-11T10:10:30.555Z,87.50
2019-03-11T10:12:59.763Z,82.50
2019-03-11T10:15:29.045Z,79.90
2019-03-11T10:17:58.242Z,84.90
2019-03-11T10:20:27.615Z,82.10
2019-03-11T10:22:56.724Z,82.50
2019-03-11T10:25:26.009Z,80.50
2019-03-11T10:27:55.120Z,83.10
2019-03-11T10:30:25.186Z,83.30
2019-03-11T10:32:54.397Z,80.90
2019-03-11T10:35:32.355Z,82.00
2019-03-11T10:37:54.326Z,81.80
2019-03-11T10:40:28.587Z,79.00
2019-03-11T10:42:57.895Z,79.10
2019-03-11T10:45:31.638Z,78.10
2019-03-11T10:47:58.147Z,78.60
2019-03-11T10:50:27.444Z,79.80
2019-03-11T10:52:56.712Z,78.20
2019-03-11T10:55:26.726Z,74.80
2019-03-11T10:57:55.981Z,77.80
2019-03-11T11:00:31.182Z,73.40
2019-03-11T11:03:00.587Z,69.60
2019-03-11T11:05:29.886Z,68.50
2019-03-11T11:07:59.175Z,69.80
2019-03-11T11:10:28.485Z,68.50
2019-03-11T11:12:57.767Z,68.50
2019-03-11T11:15:28.267Z,68.40
2019-03-11T11:17:57.554Z,71.00
2019-03-11T11:20:26.841Z,69.90
2019-03-11T11:22:56.220Z,67.20
2019-03-11T11:25:26.544Z,72.40
2019-03-11T11:27:56.013Z,69.10
2019-03-11T11:30:26.324Z,70.50
2019-03-11T11:32:55.677Z,71.10
2019-03-11T11:35:24.878Z,66.50
2019-03-11T11:37:54.340Z,67.70
2019-03-11T11:40:30.386Z,67.80
2019-03-11T11:42:59.762Z,69.00
2019-03-11T11:45:30.167Z,65.10
2019-03-11T11:47:59.551Z,63.60
2019-03-11T11:50:28.759Z,66.20
2019-03-11T11:52:57.970Z,68.50
2019-03-11T11:55:27.340Z,68.40
2019-03-11T11:57:56.651Z,66.60
2019-03-11T12:00:41.252Z,67.20
2019-03-11T12:03:10.536Z,69.50
2019-03-11T12:05:39.751Z,69.50
2019-03-11T12:08:08.954Z,72.10
2019-03-11T12:10:38.229Z,70.30
2019-03-11T12:13:07.498Z,69.90
2019-03-11T12:15:36.880Z,72.10
2019-03-11T12:18:06.184Z,69.00
2019-03-11T12:20:35.370Z,65.00
2019-03-11T12:23:04.654Z,66.00
2019-03-11T12:25:33.816Z,64.20
2019-03-11T12:28:03.031Z,66.90
2019-03-11T12:30:34.468Z,65.70
2019-03-11T12:33:03.775Z,63.50
2019-03-11T12:35:32.950Z,61.10
2019-03-11T12:38:02.163Z,60.50
2019-03-11T12:40:31.444Z,60.40
2019-03-11T12:43:02.005Z,62.60
2019-03-11T12:45:31.144Z,59.10
2019-03-11T12:48:00.302Z,60.10
2019-03-11T12:50:30.785Z,62.20
2019-03-11T12:52:59.974Z,66.60
2019-03-11T12:55:29.245Z,69.20
2019-03-11T12:57:58.466Z,65.10
2019-03-11T13:00:27.844Z,64.90
2019-03-11T13:02:57.053Z,66.10
2019-03-11T13:05:26.231Z,65.80
2019-03-11T13:07:55.357Z,63.50
2019-03-11T13:10:25.620Z,64.40
2019-03-11T13:12:54.927Z,64.10
2019-03-11T13:15:24.403Z,62.70
2019-03-11T13:17:53.702Z,64.30
2019-03-11T13:20:33.887Z,63.70
2019-03-11T13:23:03.211Z,61.00
2019-03-11T13:25:32.582Z,60.40
2019-03-11T13:28:01.789Z,58.40
2019-03-11T13:30:30.986Z,62.80
2019-03-11T13:33:00.095Z,63.70
2019-03-11T13:35:29.310Z,62.10
2019-03-11T13:37:58.469Z,63.60
2019-03-11T13:40:27.674Z,61.70
2019-03-11T13:42:56.986Z,60.30
2019-03-11T13:45:26.170Z,62.90
2019-03-11T13:47:55.332Z,62.60
2019-03-11T13:50:24.547Z,63.10
2019-03-11T13:52:53.825Z,63.30
2019-03-11T13:55:23.134Z,60.50
2019-03-11T13:57:52.503Z,62.20
2019-03-11T14:00:22.221Z,61.50
2019-03-11T14:02:51.462Z,62.60
2019-03-11T14:05:20.678Z,63.60
2019-03-11T14:07:50.075Z,62.60
2019-03-11T14:10:19.271Z,62.80
2019-03-11T14:12:48.448Z,62.40
2019-03-11T14:15:20.083Z,64.50
2019-03-11T14:17:49.403Z,67.90
2019-03-11T14:20:18.807Z,77.50
2019-03-11T14:22:47.974Z,83.20
2019-03-11T14:25:17.173Z,86.70
2019-03-11T14:27:46.448Z,90.50
2019-03-11T14:30:16.985Z,90.50
2019-03-11T14:32:46.152Z,90.20
2019-03-11T14:35:15.444Z,86.60
2019-03-11T14:37:44.720Z,84.70
2019-03-11T14:40:18.549Z,81.10
2019-03-11T14:42:47.734Z,78.70
2019-03-11T14:45:18.809Z,77.00
2019-03-11T14:47:48.007Z,75.80
2019-03-11T14:50:18.427Z,73.30
2019-03-11T14:52:47.702Z,69.40
2019-03-11T14:55:17.000Z,72.30
2019-03-11T14:57:46.269Z,72.00
2019-03-11T15:00:20.105Z,72.10
2019-03-11T15:02:49.483Z,74.00
2019-03-11T15:05:19.590Z,77.80
2019-03-11T15:07:48.990Z,81.00
2019-03-11T15:10:19.482Z,83.60
2019-03-11T15:12:48.986Z,84.10
2019-03-11T15:15:24.127Z,86.00
2019-03-11T15:17:53.439Z,87.70
2019-03-11T15:20:22.804Z,88.40
2019-03-11T15:22:52.014Z,89.50
2019-03-11T15:25:21.587Z,88.80
2019-03-11T15:27:50.692Z,88.10
2019-03-11T15:30:22.809Z,85.30
2019-03-11T15:32:52.118Z,84.60
2019-03-11T15:35:21.389Z,82.10
2019-03-11T15:37:50.615Z,82.80
2019-03-11T15:40:20.089Z,83.50
2019-03-11T15:42:49.393Z,82.30
2019-03-11T15:45:19.484Z,83.30
2019-03-11T15:47:48.584Z,80.20
2019-03-11T15:50:35.128Z,81.40
2019-03-11T15:53:04.446Z,81.10
2019-03-11T15:55:33.707Z,80.30
2019-03-11T15:58:02.916Z,77.30
2019-03-11T16:00:32.391Z,78.60
2019-03-11T16:03:01.880Z,79.80
2019-03-11T16:05:31.332Z,79.60
2019-03-11T16:08:00.539Z,78.50
2019-03-11T16:10:37.324Z,81.90
2019-03-11T16:13:06.734Z,87.10
2019-03-11T16:15:36.713Z,89.30
2019-03-11T16:18:05.919Z,88.00
2019-03-11T16:20:35.196Z,89.20
2019-03-11T16:23:04.511Z,90.00
2019-03-11T16:25:33.975Z,88.00
2019-03-11T16:28:03.133Z,85.10
2019-03-11T16:30:32.413Z,85.30
2019-03-11T16:33:01.565Z,81.10
2019-03-11T16:35:30.892Z,81.80
2019-03-11T16:38:00.004Z,84.10
2019-03-11T16:40:29.379Z,85.80
2019-03-11T16:42:58.569Z,86.50
2019-03-11T16:45:28.279Z,85.80
2019-03-11T16:47:57.480Z,86.20
2019-03-11T16:50:27.686Z,86.50
2019-03-11T16:52:59.333Z,88.10
2019-03-11T16:55:41.472Z,88.00
2019-03-11T16:58:10.567Z,88.50
2019-03-11T17:00:41.690Z,88.30
2019-03-11T17:03:10.985Z,89.10
2019-03-11T17:05:40.179Z,88.80
2019-03-11T17:08:09.548Z,90.00
2019-03-11T17:10:38.759Z,90.00
2019-03-11T17:13:08.252Z,90.20
2019-03-11T17:15:37.357Z,90.10
2019-03-11T17:18:06.648Z,90.10
2019-03-11T17:20:36.038Z,90.30
2019-03-11T17:23:05.320Z,90.10
2019-03-11T17:25:34.543Z,90.20
2019-03-11T17:28:03.821Z,90.20
2019-03-11T17:30:33.071Z,90.50
2019-03-11T17:33:02.433Z,91.10
2019-03-11T17:35:31.647Z,91.50
2019-03-11T17:38:09.492Z,92.10
2019-03-11T17:40:38.583Z,92.60
2019-03-11T17:43:07.949Z,93.30
2019-03-11T17:45:37.166Z,93.80
2019-03-11T17:48:06.648Z,94.20
2019-03-11T17:50:35.762Z,94.50
2019-03-11T17:53:20.522Z,94.90
2019-03-11T17:55:49.704Z,94.90
2019-03-11T17:58:20.473Z,94.80
2019-03-11T18:00:55.641Z,94.80
2019-03-11T18:03:21.773Z,94.90
2019-03-11T18:05:50.985Z,95.10
2019-03-11T18:08:20.258Z,95.30
2019-03-11T18:10:49.565Z,95.00
2019-03-11T18:13:19.058Z,95.30
2019-03-11T18:15:48.168Z,95.50
2019-03-11T18:18:17.371Z,95.50
2019-03-11T18:20:46.664Z,95.50
2019-03-11T18:23:15.937Z,95.60
2019-03-11T18:25:45.059Z,95.40
2019-03-11T18:28:14.314Z,95.10
2019-03-11T18:30:43.547Z,95.20
2019-03-11T18:33:12.962Z,95.10
2019-03-11T18:35:43.350Z,95.30
2019-03-11T18:38:12.645Z,95.30
2019-03-11T18:40:42.049Z,95.50
2019-03-11T18:43:20.251Z,95.40
2019-03-11T18:45:42.007Z,95.50
2019-03-11T18:48:11.107Z,95.40
2019-03-11T18:50:40.387Z,95.30
2019-03-11T18:53:09.688Z,95.00
2019-03-11T18:55:38.913Z,94.80
2019-03-11T18:58:08.162Z,94.50
2019-03-11T19:00:38.061Z,94.40
2019-03-11T19:03:07.402Z,94.40
2019-03-11T19:05:36.629Z,94.10
2019-03-11T19:08:05.928Z,93.90
2019-03-11T19:10:35.355Z,94.10
2019-03-11T19:13:04.735Z,94.00
2019-03-11T19:15:34.109Z,93.60
2019-03-11T19:18:03.352Z,93.60
2019-03-11T19:20:32.686Z,93.70
2019-03-11T19:23:02.017Z,93.80
2019-03-11T19:25:31.402Z,93.40
2019-03-11T19:28:00.596Z,92.90
2019-03-11T19:30:29.997Z,93.10
2019-03-11T19:32:59.112Z,92.40
2019-03-11T19:35:28.425Z,91.90
2019-03-11T19:37:57.880Z,91.80
2019-03-11T19:40:27.772Z,91.70
2019-03-11T19:42:57.065Z,91.60
2019-03-11T19:45:26.469Z,91.40
2019-03-11T19:47:55.697Z,91.10
2019-03-11T19:50:24.902Z,91.20
2019-03-11T19:52:58.964Z,90.90
2019-03-11T19:55:24.971Z,91.00
2019-03-11T19:57:54.158Z,90.80
2019-03-11T20:00:24.632Z,90.70
2019-03-11T20:02:54.026Z,90.20
2019-03-11T20:05:34.522Z,90.30
2019-03-11T20:08:03.862Z,90.00
2019-03-11T20:10:33.138Z,89.10
2019-03-11T20:13:02.424Z,88.60
2019-03-11T20:15:31.743Z,88.50
2019-03-11T20:18:01.019Z,87.10
2019-03-11T20:20:30.257Z,86.60
2019-03-11T20:22:59.575Z,86.10
2019-03-11T20:25:31.735Z,85.80
2019-03-11T20:28:01.059Z,86.00
2019-03-11T20:30:30.478Z,84.90
2019-03-11T20:32:59.805Z,84.30
2019-03-11T20:35:29.113Z,84.30
2019-03-11T20:37:58.342Z,83.80
2019-03-11T20:40:27.601Z,83.30
2019-03-11T20:42:56.873Z,83.80
2019-03-11T20:45:26.005Z,83.60
2019-03-11T20:47:55.241Z,83.80
2019-03-11T20:50:24.565Z,83.90
2019-03-11T20:52:53.975Z,83.10
2019-03-11T20:55:23.272Z,82.50
2019-03-11T20:57:52.496Z,83.10
2019-03-11T21:00:28.622Z,82.30
2019-03-11T21:03:00.034Z,82.50
2019-03-11T21:05:31.644Z,82.30
2019-03-11T21:08:00.900Z,82.20
2019-03-11T21:10:30.069Z,82.10
2019-03-11T21:12:59.424Z,82.70
2019-03-11T21:15:28.682Z,82.70
2019-03-11T21:17:57.964Z,83.50
2019-03-11T21:20:27.169Z,82.60
2019-03-11T21:22:56.430Z,82.10
2019-03-11T21:25:25.556Z,82.20
2019-03-11T21:27:54.867Z,82.00
2019-03-11T21:30:27.579Z,81.80
2019-03-11T21:32:57.068Z,81.70
2019-03-11T21:35:26.412Z,81.50
2019-03-11T21:37:55.828Z,81.80
2019-03-11T21:40:25.551Z,80.90
2019-03-11T21:42:55.058Z,81.70
2019-03-11T21:45:33.373Z,81.00
2019-03-11T21:47:54.850Z,81.50
2019-03-11T21:50:25.443Z,80.70
2019-03-11T21:52:54.541Z,80.00
2019-03-11T21:55:24.128Z,81.40
2019-03-11T21:57:53.390Z,80.80
2019-03-11T22:00:34.370Z,79.10
2019-03-11T22:02:57.502Z,80.00
2019-03-11T22:05:26.763Z,79.40
2019-03-11T22:07:56.093Z,80.10
2019-03-11T22:10:25.261Z,79.80
2019-03-11T22:12:54.365Z,80.30
2019-03-11T22:15:27.391Z,80.00
2019-03-11T22:17:56.623Z,80.10
2019-03-11T22:20:25.904Z,79.90
2019-03-11T22:22:55.147Z,80.10
2019-03-11T22:25:24.278Z,80.60
2019-03-11T22:27:53.486Z,79.40
2019-03-11T22:30:26.428Z,80.00
2019-03-11T22:32:55.628Z,79.90
2019-03-11T22:35:24.809Z,80.60
2019-03-11T22:37:53.966Z,80.40
2019-03-11T22:40:23.227Z,81.30
2019-03-11T22:42:52.331Z,81.00
2019-03-11T22:45:23.068Z,82.40
2019-03-11T22:47:52.880Z,81.90
2019-03-11T22:50:22.239Z,81.90
2019-03-11T22:52:51.455Z,81.90
2019-03-11T22:55:21.431Z,82.60
2019-03-11T22:57:50.553Z,83.00
2019-03-11T23:00:27.020Z,83.10
2019-03-11T23:02:56.332Z,82.80
2019-03-11T23:05:25.598Z,82.40
2019-03-11T23:07:54.815Z,83.50
2019-03-11T23:10:28.290Z,83.90
2019-03-11T23:12:57.163Z,84.00
2019-03-11T23:15:26.458Z,84.10
2019-03-11T23:17:55.554Z,84.70
2019-03-11T23:20:24.729Z,84.90
2019-03-11T23:22:53.841Z,84.40
2019-03-11T23:25:23.019Z,84.80
2019-03-11T23:27:52.127Z,84.40
2019-03-11T23:30:21.262Z,85.60
2019-03-11T23:32:50.447Z,86.80
2019-03-11T23:35:19.777Z,86.50
2019-03-11T23:37:48.957Z,86.60
2019-03-11T23:40:18.653Z,87.60
2019-03-11T23:42:47.832Z,87.70
2019-03-11T23:45:16.941Z,88.70
2019-03-11T23:47:46.128Z,88.40
2019-03-11T23:50:19.045Z,89.10
2019-03-11T23:52:46.556Z,89.40
2019-03-11T23:55:15.666Z,89.40
2019-03-11T23:57:44.988Z,89.30
